Messwerte Zeltweg

Temperatur

Temperatur
°C
1575763200 1.00 1.00 -3
1575766800 2.00 2.00
1575770400 3.00 3.00
1575774000 4.00 4.00 -4
1575777600 5.00 5.00 -4
1575781200 6.00 6.00 -6
1575784800 7.00 7.00 -5
1575788400 8.00 8.00 -5
1575792000 9.00 9.00 -4
1575795600 10.00 10.00 0
1575799200 11.00 11.00 1
1575802800 12.00 12.00 3
1575806400 13.00 13.00 4
1575810000 14.00 14.00 5
1575813600 15.00 15.00 6
1575817200 16.00 16.00 4
1575820800 17.00 17.00 1
1575824400 18.00 18.00 -1
1575828000 19.00 19.00 -1
1575831600 20.00 20.00 -3
1575835200 21.00 21.00 -4
1575838800 22.00 22.00 -4
1575842400 23.00 23.00
1575846000 0.00 0.00

Wir danken unserem Partner:

Aktuellste Messwerte

Wettercharakter
Wetter: klar
Temperatur
-4 °C
Feuchtigkeit
93 %
Wind
5 km/h, -
Luftdruck
1009 hPa
Messzeit: 9. Dezember 2019, 1.00Datenquelle: METAR

Webcams

Weitere Messstationen in der Nähe

Messstation Temperatur Entfernung
Graz -3 °C 56 km
Klagenfurt -3 °C 69 km
Wienerbruck -2.5 °C 84 km
Maribor 1 °C 107 km
Ljubljana 1 °C 111 km
Tarvisio - 118 km
Linz 1 °C 122 km

Wind

Windrichtung Böen Mittelwind
° km/h km/h
1575763200 1.00 0.00 - 1.00 5
1575766800 2.00 1.00 - 2.00
1575770400 3.00 2.00 - 3.00
1575774000 4.00 3.00 - 4.00 0
1575777600 5.00 4.00 - 5.00 5
1575781200 6.00 5.00 - 6.00 330° 5
1575784800 7.00 6.00 - 7.00 5
1575788400 8.00 7.00 - 8.00 5
1575792000 9.00 8.00 - 9.00 290° 0
1575795600 10.00 9.00 - 10.00 5
1575799200 11.00 10.00 - 11.00 80° 5
1575802800 12.00 11.00 - 12.00 5
1575806400 13.00 12.00 - 13.00 0
1575810000 14.00 13.00 - 14.00 5
1575813600 15.00 14.00 - 15.00 300° 5
1575817200 16.00 15.00 - 16.00 0
1575820800 17.00 16.00 - 17.00 360° 5
1575824400 18.00 17.00 - 18.00 0
1575828000 19.00 18.00 - 19.00 5
1575831600 20.00 19.00 - 20.00 5
1575835200 21.00 20.00 - 21.00 0
1575838800 22.00 21.00 - 22.00 70° 5
1575842400 23.00 22.00 - 23.00
1575846000 0.00 23.00 - 0.00

Ihre Wetterstation

Fehlt Ihre Wetterstation auf unserem Portal?

Schreiben Sie an network@meteonews.ch

Klima

Wann ist es am wärmsten? Wann regnet es am wenigsten? Unsere Klimadaten geben Auskunft.